Jueves, 21 de Agosto del 2014

portal contactenos mapa del sitio buscar Revisar Correo Corporativo

Reporte METAR Consolidado

|| Reporte TAF Consolidado ||

Informe METAR emitido cada hora.

METAR

ESTACIÓN

AEROPUERTO

HORA UTC

DESCRIPCIÓN

SLGM

Guayaramerín

10-49S|65-20W

23:00

SLGM 202300Z 00000KT 8000 NSC 29/21 Q1012 A2990 HR61 FU=

SLRI

Riberalta

11-00S|66-04W

23:00

SLRI 202300Z 00000KT 5000 FU NSC 30/22 Q1013 A2992 HR62=

SLCO

Cobija

11-02S|68-47W

22:00

SLCO 202200Z 15004KT 9999 FEW030 31/20 Q1013 A2994 986.4 HR52 CI FU=

SLJO

San Joaquin

13-03S|64-39W

22:00

SLJO 202200Z 00000KT 9999 FEW017 34/19 Q1013 A2992 HR43 RWY NML=

SLRA

San Ramón

13-15S|64-36W

22:00

SLRA 202200Z 00000KT 9999 FEW017 34/19 Q1013 A2991 HR43 RWY NML=

SLMG

San Magdalena

13-15S|64-03W

23:00

SLMG 202300Z 00000KT 9999 NSC 29/22 Q1013 A2992 HR67 RWY NML=

SLBU

Baures

13-39S|63-42W

22:00

SLBU 202200Z 35004KT 9999 FEW020 33/21 Q1012 A2991 HR50 RWY NML=

SLSA

Santa Ana de Yacuma

13-45S|65-26W

23:00

SLSA 202300Z 00000KT 9999 FEW020 30/20 Q1012 A2989 HR54=

SLSR

Santa Rosa

14-04S|66-47W

22:00

SLSR 202200Z 00000KT 9999 NSC 33/18 Q1010 A2983 HR41 RWY NML=

SLRY

Reyes

14-18S|67-21W

22:00

SLRY 202200Z 00000KT 9999 NSC 33/21 Q1014 A2996 HR52 RWY OPR 1 000M=

SLRQ

Rurrenabaque

14-25S|67-29W

22:00

SLRQ 202200Z 00000KT 9999 NSC 30/26 Q1013 A2992 HR77=

SLAP

Apolo

14-44S|68-24W

-

Mensaje no Recibido

SLTR

Trinidad

14-49S|64-54W

01:00

SLTR 210100Z 00000KT 3000 FU NSC 25/21 Q1014 A2994 995.4 HR78 NOSIG=

SLSB

San Borja

14-51S|66-44W

23:00

SLSB 202300Z 00000KT 7000 NSC 26/20 Q1013 A2994 FU HR70 RWY NML =

SLSM

San Ignacio de Moxos

14-57S|65-38W

22:00

SLSM 202200Z 00000KT 9999 NSC 31/24 Q1011 A2988 HR68 RWY CLSD=

SLAS

Ascención de Guarayos

15-55S|63-09W

23:00

SLAS 202300Z 00000KT 9999 FEW020 28/20 Q1014 A2995 HR58 RWY NML =

SLCP

Concepción

16-08S|62-01W

22:00

SLCP 202200Z 00000KT 9999 NSC 30/18 Q1017 A3003 HR47 RWY NML=

SLLP

Internaciónal El Alto

16-08S|68-10W

04:00

SLLP 210400Z 07007KT 9999 FEW005 01/M00 Q1040 A3071 629.5 AC/CI HR88 NOSIG=

SLJV

San Javier

16-16S|62-28W

22:00

SLJV 202200Z 00000KT 9999 NSC 27/21 Q1014 A2994 HR68 RWY NML=

SLTI

San Matías

16-20S|58-24W

22:00

SLTI 202200Z 00000KT 9999 NSC 30/22 Q1019 A3009 HR61 RWY NML=

SLSI

San Ignacio de Velasco

16-23S|60-57W

23:00

SLSI 202300Z 00000KT 9999 NSC 30/22 Q1014 A2994 HR55 RWY NML=

SLCB

Cochabamba

17-25S|66-10W

04:00

SLCB 210400Z 00000KT 9999 FEW027 SCT080 BKN200 14/06 Q1028 A3036 753.7 HR57 FU NOSIG=

SLCN

Charaña

17-35S|69-25W

-

Mensaje no Recibido

SLVR

Internaciónal Viru Viru

17-38S|63-08W

04:00

SLVR 210400Z 31006KT 9999 NSC 22/17 Q1014 A2996 HR74 CI NOSIG=

SLET

El Trompillo

17-48S|63-10W

23:00

SLET 202300Z 31008KT 9999 FEW025 SCT080 28/17 Q1013 A2993 HR52 NOSIG=

SLJE

San José de Chiquitos

17-49S|60-44W

22:00

SLJE 202200Z 00000KT 9999 FEW017 30/15 Q1018 A3006 HR42 RWY NML =

SLOR

Oruro

17-57S|67-04W

23:00

SLOR 202300Z 31010KT 9999 FEW017 FEW020CB SCT070 BKN200 08/01 Q1036 A3060 656.7 CB/N/NE/E/W/NW LT/E HR60=

SLRB

Roboré

18-19S|59-45W

23:00

SLRB 202300Z 00000KT 9999 NSC 26/23 Q1016 A3000 HR80 RWY NML=

SLVG

Valle Grande

18-28S|64-05W

21:00

SLVG 202100Z 36012KT 9999 NSC 20/08 Q1026 A3030 HR41 RWY NML=

SLPS

Puerto Suárez

18-58S|57-49W

23:00

SLPS 202300Z 00000KT 9999 NSC 24/21 Q1014 A2995 HR83 FU=

SLSU

Sucre

19-00S|65-17W

23:00

SLSU 202300Z 02011KT 9999 FEW015 14/05 Q1030 A3042 HR57=

SLPO

Potosí

19-32S|65-43W

21:00

SLPO 202100Z 06010KT 9999 SCT020 BKN200 11/M02 Q1035 A3056 HR42=

SLAG

Monteagudo

19-49S|63-58W

21:00

SLAG 202100Z 09008KT 9999 NSC 27/13 Q1018 A3006 HR41 CC RWY CLSD=

SLCA

Camiri

20-00S|63-31W

23:00

SLCA 202300Z 36004KT 9999 FEW036 27/13 Q1016 A3000 HR41 RWY NML =

SLUY

Uyuni

20-27S|62-52W

21:00

SLUY 202100Z 35005KT 9999 FEW020 19/M04 Q1033 A3052 658.0 CI HR20=

SLVM

Villamontes

21-15S|63-24W

21:00

SLVM 202100Z 36015KT 9999 NSC 34/15 Q1009 A2980 HR34=

SLTJ

Tarija

21-33S|64-42W

23:00

SLTJ 202300Z 00000KT 9999 FEW040 21/10 Q1019 A3011 HR49=

SLYA

Yacuiba

21-57S|63-39W

23:00

SLYA 202300Z 00000KT 9999 NSC 27/18 Q1012 A2990 HR59=

SLBJ

Bermejo

22-46S|64-18W

21:00

SLBJ 202100Z 36006KT 9999 NSC 35/21 Q1003 A2962 HR47 FU=